NVIDIA Net Profit Margin 2006-2021 | NVDA

Current and historical net profit margin for NVIDIA (NVDA) from 2006 to 2021. Net profit margin can be defined as net Income as a portion of total sales revenue. NVIDIA net profit margin for the three months ending January 31, 2021 was .
NVIDIA Net Profit Margin Historical Data
Date TTM Revenue TTM Net Income Net Margin
2021-01-31 $16.68B $4.33B 25.98%
2020-10-31 $14.78B $3.83B 25.89%
2020-07-31 $13.07B $3.39B 25.94%
2020-04-30 $11.78B $3.32B 28.18%
2020-01-31 $10.92B $2.80B 25.61%
2019-10-31 $10.02B $2.41B 24.07%
2019-07-31 $10.19B $2.74B 26.92%
2019-04-30 $10.73B $3.29B 30.67%
2019-01-31 $11.72B $4.14B 35.34%
2018-10-31 $12.42B $4.69B 37.79%
2018-07-31 $11.88B $4.30B 36.22%
2018-04-30 $10.98B $3.78B 34.45%
2018-01-31 $9.71B $3.05B 31.37%
2017-10-31 $8.98B $2.58B 28.78%
2017-07-31 $8.34B $2.29B 27.41%
2017-04-30 $7.54B $1.97B 26.05%
2017-01-31 $6.91B $1.67B 24.11%
2016-10-31 $6.14B $1.22B 19.86%
2016-07-31 $5.44B $0.92B 16.97%
2016-04-30 $5.16B $0.69B 13.32%
2016-01-31 $5.01B $0.61B 12.26%
2015-10-31 $4.86B $0.60B 12.33%
2015-07-31 $4.78B $0.53B 11.00%
2015-04-30 $4.73B $0.63B 13.28%
2015-01-31 $4.68B $0.63B 13.48%
2014-10-31 $4.58B $0.59B 12.79%
2014-07-31 $4.40B $0.53B 12.06%
2014-04-30 $4.28B $0.50B 11.66%
2014-01-31 $4.13B $0.44B 10.65%
2013-10-31 $4.09B $0.47B 11.41%
2013-07-31 $4.24B $0.56B 13.13%
2013-04-30 $4.31B $0.58B 13.46%
2013-01-31 $4.28B $0.56B 13.13%
2012-10-31 $4.13B $0.50B 12.22%
2012-07-31 $3.99B $0.47B 11.86%
2012-04-30 $3.96B $0.51B 12.77%
2012-01-31 $4.00B $0.58B 14.53%
2011-10-31 $3.93B $0.64B 16.20%
2011-07-31 $3.71B $0.54B 14.67%
2011-04-30 $3.50B $0.25B 7.17%
2011-01-31 $3.54B $0.25B 7.17%
2010-10-31 $3.64B $0.21B 5.85%
2010-07-31 $3.70B $0.24B 6.38%
2010-04-30 $3.66B $0.27B 7.42%
2010-01-31 $3.33B $-0.07B -2.01%
2009-10-31 $2.83B $-0.35B -12.25%
2009-07-31 $2.82B $-0.39B -13.90%
2009-04-30 $2.94B $-0.41B -13.90%
2009-01-31 $3.43B $-0.03B -0.88%
2008-10-31 $4.15B $0.38B 9.04%
2008-07-31 $4.37B $0.55B 12.58%
2008-04-30 $4.41B $0.84B 19.13%
2008-01-31 $4.10B $0.80B 19.47%
2007-10-31 $3.77B $0.71B 18.68%
2007-07-31 $3.48B $0.58B 16.56%
2007-04-30 $3.23B $0.49B 15.16%
2007-01-31 $3.07B $0.45B 14.66%
2006-10-31 $2.83B $0.38B 13.59%
2006-07-31 $2.59B $0.34B 13.18%
2006-04-30 $2.47B $0.33B 13.26%
2006-01-31 $2.38B $0.30B 12.63%
2005-10-31 $2.31B $0.24B 10.31%
Sector Industry Market Cap Revenue
Computer and Technology Semiconductor - General $396.147B $16.675B
NVIDIA Corporation is the worldwide leader in graphics processors and media communications devices. The NVIDIA? Tesla? accelerated computing platform gives modern data centers the power to accelerate both artificial intelligence and high-performance computing workloads. NVIDIA? DGX? Systems are built on the new, revolutionary NVIDIA Volta? GPU platform. Powered by NVIDIA? Tesla? GPUs and NVIDIA NVLink?, the HGX reference architecture standardizes the design of data centers accelerating AI in the cloud-from autonomous driving and personalized healthcare to superhuman voice recognition. NVIDIA GPU Cloud (NGC) is a GPU-accelerated platform that runs everywhere. Data scientists and researchers can now rapidly build, train, and deploy neural network models to address some of the most complicated AI challenges. Their researchers operate as a think tank, accelerating advances in product technologies, including AI innovations like facial animations and light transport.
Stock Name Country Market Cap PE Ratio
Intel (INTC) United States $263.684B 12.19
Texas Instruments (TXN) United States $176.621B 32.15
STMicroelectronics (STM) Switzerland $35.520B 32.22
SUMCO CORP ADR (SUOPY) Japan $7.316B 30.83
Thk (THKLY) Japan $4.814B 0.00
Amtech Systems (ASYS) United States $0.156B 0.00